Time;durP1;ratioP1;P1;durP2;ratioP2;P2;SDS_P1;SDS_P2;PMS_P1;PMS_P2;Temp;Humidity;BMP_temperature;BMP_pressure;BME280_temperature;BME280_humidity;BME280_pressure;Samples;Min_cycle;Max_cycle;Signal;HPM_P1;HPM_P2
2023/10/02 00:01:48;;;;;;;25.92;12.27;;;;;;;;;;4989983;28;91990;-63
2023/10/02 00:04:17;;;;;;;;;;;;;;;;;;4989865;28;92472;-63
2023/10/02 00:06:44;;;;;;;25.50;12.07;;;;;;;;;;4995129;28;123843;-63
2023/10/02 00:09:11;;;;;;;23.42;11.98;;;;;;;;;;4994960;28;95839;-63
2023/10/02 00:11:41;;;;;;;32.50;12.93;;;;;;;;;;4991849;28;92733;-65
2023/10/02 00:14:22;;;;;;;28.05;12.07;;;;;;;;;;4992156;28;94119;-66
2023/10/02 00:17:04;;;;;;;25.52;12.00;;;;;;;;;;4988438;28;93372;-66
2023/10/02 00:19:33;;;;;;;27.08;13.75;;;;;;;;;;4992899;28;92487;-65
2023/10/02 00:22:04;;;;;;;29.58;13.20;;;;;;;;;;4992751;28;94546;-65
2023/10/02 00:24:35;;;;;;;24.90;12.45;;;;;;;;;;4992391;28;92420;-66
2023/10/02 00:27:03;;;;;;;25.77;12.55;;;;;;;;;;4992363;28;93207;-65
2023/10/02 00:29:29;;;;;;;26.67;12.15;;;;;;;;;;4996767;28;93685;-66
2023/10/02 00:31:56;;;;;;;24.80;12.57;;;;;;;;;;4992180;28;92527;-66
2023/10/02 00:34:32;;;;;;;26.63;12.85;;;;;;;;;;4990922;28;94996;-66
2023/10/02 00:37:05;;;;;;;24.55;12.02;;;;;;;;;;4989857;28;93416;-65
2023/10/02 00:39:35;;;;;;;27.65;12.82;;;;;;;;;;4992270;28;92346;-65
2023/10/02 00:44:54;;;;;;;25.80;12.90;;;;;;;;;;4988458;28;92477;-65
2023/10/02 00:47:48;;;;;;;23.00;11.80;;;;;;;;;;4989107;28;94341;-65
2023/10/02 00:50:22;;;;;;;25.60;12.57;;;;;;;;;;4990354;28;92898;-66
2023/10/02 00:52:59;;;;;;;31.92;13.23;;;;;;;;;;4992472;28;91911;-65
2023/10/02 00:55:32;;;;;;;28.08;12.15;;;;;;;;;;4989190;28;93641;-66
2023/10/02 00:58:03;;;;;;;26.27;12.88;;;;;;;;;;4991468;28;93361;-65
2023/10/02 01:00:31;;;;;;;24.85;12.27;;;;;;;;;;4990062;28;95100;-65
2023/10/02 01:02:58;;;;;;;26.30;12.05;;;;;;;;;;4991372;28;94095;-65
2023/10/02 01:08:24;;;;;;;29.80;12.40;;;;;;;;;;4991364;28;93367;-65
2023/10/02 01:11:26;;;;;;;28.40;12.25;;;;;;;;;;4991429;28;93452;-65
2023/10/02 01:13:45;;;;;;;22.85;11.57;;;;;;;;;;4988953;28;92967;-66
2023/10/02 01:16:17;;;;;;;21.77;10.98;;;;;;;;;;4992423;28;94221;-65
2023/10/02 01:18:48;;;;;;;23.60;11.15;;;;;;;;;;4991756;28;92728;-65
2023/10/02 01:21:18;;;;;;;24.73;11.60;;;;;;;;;;4991463;28;92914;-66
2023/10/02 01:24:06;;;;;;;;;;;;;;;;;;4992265;28;93967;-66
2023/10/02 01:26:31;;;;;;;27.35;10.82;;;;;;;;;;4988589;28;126253;-66
2023/10/02 01:29:01;;;;;;;25.90;11.20;;;;;;;;;;4994881;28;92531;-65
2023/10/02 01:31:41;;;;;;;28.40;11.97;;;;;;;;;;4993767;28;93226;-65
2023/10/02 01:36:53;;;;;;;25.65;11.07;;;;;;;;;;4994844;28;93104;-65
2023/10/02 01:39:21;;;;;;;26.38;11.90;;;;;;;;;;4994671;28;93412;-65
2023/10/02 01:41:54;;;;;;;22.27;10.57;;;;;;;;;;4990830;28;92661;-65
2023/10/02 01:44:22;;;;;;;25.17;11.82;;;;;;;;;;4991940;28;93381;-66
2023/10/02 01:46:49;;;;;;;22.80;10.82;;;;;;;;;;4991497;28;93526;-65
2023/10/02 01:49:27;;;;;;;21.23;11.20;;;;;;;;;;4994252;28;92961;-65
2023/10/02 01:52:01;;;;;;;26.50;11.05;;;;;;;;;;4992872;28;94899;-65
2023/10/02 01:54:30;;;;;;;22.95;11.35;;;;;;;;;;4994195;28;92455;-66
2023/10/02 01:56:59;;;;;;;27.30;11.55;;;;;;;;;;4993192;28;94080;-65
2023/10/02 01:59:26;;;;;;;25.05;10.73;;;;;;;;;;4994167;28;93480;-65
2023/10/02 02:01:54;;;;;;;20.83;10.60;;;;;;;;;;4994859;28;92824;-65
2023/10/02 02:04:33;;;;;;;23.10;10.68;;;;;;;;;;4990684;28;93161;-65
2023/10/02 02:07:01;;;;;;;22.67;10.57;;;;;;;;;;4992007;28;94714;-65
2023/10/02 02:09:31;;;;;;;21.63;10.90;;;;;;;;;;4994970;28;91634;-66
2023/10/02 02:12:10;;;;;;;24.00;10.82;;;;;;;;;;4993989;28;92636;-65
2023/10/02 02:14:41;;;;;;;26.48;10.40;;;;;;;;;;4996747;28;93414;-65
2023/10/02 02:17:10;;;;;;;22.35;9.93;;;;;;;;;;4992192;28;94831;-65
2023/10/02 02:19:41;;;;;;;24.20;10.35;;;;;;;;;;4994857;28;93667;-65
2023/10/02 02:22:11;;;;;;;21.25;10.50;;;;;;;;;;4993004;28;92726;-65
2023/10/02 02:24:38;;;;;;;26.08;10.98;;;;;;;;;;4993703;28;93270;-65
2023/10/02 02:27:06;;;;;;;23.75;10.15;;;;;;;;;;4994361;28;93611;-65
2023/10/02 02:29:34;;;;;;;26.98;10.57;;;;;;;;;;4993486;28;92576;-65
2023/10/02 02:32:00;;;;;;;25.15;10.43;;;;;;;;;;4993823;28;93347;-63
2023/10/02 02:34:27;;;;;;;21.17;10.10;;;;;;;;;;4997272;28;92704;-64
2023/10/02 02:36:57;;;;;;;26.58;10.52;;;;;;;;;;4993854;28;93312;-63
2023/10/02 02:39:24;;;;;;;21.30;10.75;;;;;;;;;;4990070;28;93424;-63
2023/10/02 02:42:09;;;;;;;23.55;10.95;;;;;;;;;;4991423;28;94908;-63
2023/10/02 02:44:40;;;;;;;30.05;11.30;;;;;;;;;;4991377;28;95552;-63
2023/10/02 02:47:08;;;;;;;21.42;10.75;;;;;;;;;;4997536;28;93557;-63
2023/10/02 02:49:51;;;;;;;25.77;11.48;;;;;;;;;;4993243;28;92587;-63
2023/10/02 02:52:19;;;;;;;21.10;10.45;;;;;;;;;;4994077;28;93082;-63
2023/10/02 02:54:50;;;;;;;22.55;9.95;;;;;;;;;;4993178;28;94123;-63
2023/10/02 02:57:25;;;;;;;22.73;10.82;;;;;;;;;;4997967;28;92965;-63
2023/10/02 03:00:25;;;;;;;25.45;10.60;;;;;;;;;;4992995;28;92652;-62
2023/10/02 03:02:54;;;;;;;20.47;10.80;;;;;;;;;;4993016;28;92528;-63
2023/10/02 03:05:22;;;;;;;23.52;10.68;;;;;;;;;;4993090;28;93156;-63
2023/10/02 03:07:54;;;;;;;24.38;12.10;;;;;;;;;;4991669;28;96049;-63
2023/10/02 03:10:23;;;;;;;27.05;11.25;;;;;;;;;;4992799;28;93509;-62
2023/10/02 03:12:51;;;;;;;24.60;11.20;;;;;;;;;;4993251;28;93193;-62
2023/10/02 03:15:19;;;;;;;19.90;10.95;;;;;;;;;;4993536;28;94621;-63
2023/10/02 03:17:49;;;;;;;21.10;10.38;;;;;;;;;;4993610;28;92545;-63
2023/10/02 03:20:24;;;;;;;21.55;10.70;;;;;;;;;;4996344;28;93184;-63
2023/10/02 03:22:53;;;;;;;26.08;10.95;;;;;;;;;;4993446;28;93334;-63
2023/10/02 03:25:27;;;;;;;24.27;10.85;;;;;;;;;;4993853;28;94380;-63
2023/10/02 03:27:57;;;;;;;23.23;10.18;;;;;;;;;;4993154;28;93466;-63
2023/10/02 03:30:38;;;;;;;24.63;11.52;;;;;;;;;;4993592;28;92512;-63
2023/10/02 03:33:17;;;;;;;22.15;10.35;;;;;;;;;;4988936;28;94878;-63
2023/10/02 03:35:56;;;;;;;22.13;10.48;;;;;;;;;;4993077;28;93748;-63
2023/10/02 03:38:23;;;;;;;23.65;11.32;;;;;;;;;;4992964;28;92616;-63
2023/10/02 03:40:53;;;;;;;20.77;10.93;;;;;;;;;;4993581;28;93061;-63
2023/10/02 03:43:34;;;;;;;28.35;10.85;;;;;;;;;;4996104;28;93422;-63
2023/10/02 03:46:04;;;;;;;19.65;10.18;;;;;;;;;;4992927;28;93215;-63
2023/10/02 03:48:32;;;;;;;24.42;11.23;;;;;;;;;;4992409;28;93534;-63
2023/10/02 03:51:04;;;;;;;27.10;10.90;;;;;;;;;;4992865;28;91779;-63
2023/10/02 03:53:31;;;;;;;25.50;11.30;;;;;;;;;;4989107;28;93564;-63
2023/10/02 03:55:59;;;;;;;24.67;11.13;;;;;;;;;;4991187;28;93510;-63
2023/10/02 03:58:38;;;;;;;22.20;10.38;;;;;;;;;;4987600;28;94783;-63
2023/10/02 04:01:08;;;;;;;23.75;10.77;;;;;;;;;;4990438;28;95670;-63
2023/10/02 04:03:52;;;;;;;25.48;11.00;;;;;;;;;;4992904;28;93619;-63
2023/10/02 04:06:33;;;;;;;24.80;11.25;;;;;;;;;;4994997;28;92571;-62
2023/10/02 04:09:18;;;;;;;26.40;10.98;;;;;;;;;;4988741;28;93105;-63
2023/10/02 04:11:45;;;;;;;28.58;10.98;;;;;;;;;;4995951;28;93242;-63
2023/10/02 04:14:17;;;;;;;27.52;12.18;;;;;;;;;;4992943;28;93638;-63
2023/10/02 04:16:46;;;;;;;25.98;11.88;;;;;;;;;;4992980;28;93643;-63
2023/10/02 04:19:15;;;;;;;26.25;12.20;;;;;;;;;;4991982;28;92561;-63
2023/10/02 04:21:45;;;;;;;28.05;12.40;;;;;;;;;;4992790;28;93264;-63
2023/10/02 04:24:11;;;;;;;23.75;10.90;;;;;;;;;;4989572;28;96387;-63
2023/10/02 04:26:41;;;;;;;28.85;11.43;;;;;;;;;;4992928;28;92580;-63
2023/10/02 04:29:25;;;;;;;22.70;11.52;;;;;;;;;;4995159;28;94113;-63
2023/10/02 04:34:37;;;;;;;22.45;10.20;;;;;;;;;;4989905;28;93147;-63
2023/10/02 04:37:19;;;;;;;23.60;10.70;;;;;;;;;;4991458;28;93432;-63
2023/10/02 04:42:25;;;;;;;26.45;10.88;;;;;;;;;;4992262;28;93117;-63
2023/10/02 04:44:58;;;;;;;21.02;10.40;;;;;;;;;;4992558;28;93347;-63
2023/10/02 04:47:28;;;;;;;23.55;11.00;;;;;;;;;;4992060;28;92913;-63
2023/10/02 04:55:27;;;;;;;26.67;10.85;;;;;;;;;;4989678;28;93209;-63
2023/10/02 04:57:55;;;;;;;24.00;10.40;;;;;;;;;;4991722;28;93424;-63
2023/10/02 05:00:35;;;;;;;26.88;10.88;;;;;;;;;;4996545;28;93919;-63
2023/10/02 05:03:18;;;;;;;25.65;11.23;;;;;;;;;;4988340;28;94332;-63
2023/10/02 05:05:49;;;;;;;25.55;11.23;;;;;;;;;;4991108;28;93734;-66
2023/10/02 05:08:21;;;;;;;28.40;12.50;;;;;;;;;;4995642;28;91603;-63
2023/10/02 05:10:49;;;;;;;26.90;11.15;;;;;;;;;;5000150;28;95309;-63
2023/10/02 05:13:53;;;;;;;27.02;11.55;;;;;;;;;;4997750;28;93562;-63
2023/10/02 05:16:12;;;;;;;28.23;12.02;;;;;;;;;;4991028;28;95155;-63
2023/10/02 05:18:44;;;;;;;33.72;11.80;;;;;;;;;;4995008;28;93245;-63
2023/10/02 05:21:11;;;;;;;27.20;11.95;;;;;;;;;;4994547;28;92586;-62
2023/10/02 05:23:38;;;;;;;26.75;11.48;;;;;;;;;;4994481;28;93536;-63
2023/10/02 05:26:04;;;;;;;30.15;12.88;;;;;;;;;;4994805;28;92447;-63
2023/10/02 05:28:44;;;;;;;28.05;11.82;;;;;;;;;;4995214;28;92352;-63
2023/10/02 05:31:11;;;;;;;26.45;11.40;;;;;;;;;;4992360;28;93212;-63
2023/10/02 05:33:38;;;;;;;30.02;11.98;;;;;;;;;;4999302;28;91804;-63
2023/10/02 05:36:06;;;;;;;29.65;12.32;;;;;;;;;;4997712;28;92617;-64
2023/10/02 05:38:33;;;;;;;26.73;12.50;;;;;;;;;;4994619;28;93580;-63
2023/10/02 05:41:03;;;;;;;25.25;11.63;;;;;;;;;;4989357;28;94842;-63
2023/10/02 05:43:47;;;;;;;28.33;11.80;;;;;;;;;;4990586;28;95592;-63
2023/10/02 05:46:16;;;;;;;25.10;11.93;;;;;;;;;;4991943;28;93585;-63
2023/10/02 05:48:43;;;;;;;24.73;12.00;;;;;;;;;;4994126;28;93024;-63
2023/10/02 05:51:12;;;;;;;26.40;12.13;;;;;;;;;;4994915;28;92463;-63
2023/10/02 05:53:53;;;;;;;31.50;11.27;;;;;;;;;;4993744;28;93509;-63
2023/10/02 05:56:19;;;;;;;30.42;12.15;;;;;;;;;;4994046;28;92482;-62
2023/10/02 05:58:49;;;;;;;29.90;12.05;;;;;;;;;;4998263;28;94277;-63
2023/10/02 06:01:18;;;;;;;25.08;11.07;;;;;;;;;;4994620;28;92337;-63
2023/10/02 06:03:58;;;;;;;27.77;11.45;;;;;;;;;;4994870;28;93505;-65
2023/10/02 06:06:25;;;;;;;28.77;12.30;;;;;;;;;;4992258;28;97409;-65
2023/10/02 06:08:55;;;;;;;27.88;11.82;;;;;;;;;;4994643;28;92584;-65
2023/10/02 06:11:31;;;;;;;33.45;12.30;;;;;;;;;;4993632;28;93186;-66
2023/10/02 06:14:09;;;;;;;35.38;12.75;;;;;;;;;;4993733;28;93866;-65
2023/10/02 06:16:40;;;;;;;24.83;11.13;;;;;;;;;;4990927;28;93231;-65
2023/10/02 06:19:13;;;;;;;29.52;11.95;;;;;;;;;;4994303;28;93085;-65
2023/10/02 06:22:00;;;;;;;24.48;11.73;;;;;;;;;;4995094;28;93640;-66
2023/10/02 06:24:29;;;;;;;29.05;12.18;;;;;;;;;;4994516;28;93180;-66
2023/10/02 06:27:04;;;;;;;29.27;12.13;;;;;;;;;;4992950;28;93428;-65
2023/10/02 06:29:38;;;;;;;24.13;12.00;;;;;;;;;;4993242;28;92562;-66
2023/10/02 06:32:05;;;;;;;27.33;11.23;;;;;;;;;;4988623;28;94770;-65
2023/10/02 06:34:39;;;;;;;30.95;12.60;;;;;;;;;;4990380;28;93419;-65
2023/10/02 06:37:12;;;;;;;29.23;12.40;;;;;;;;;;4991360;28;92564;-65
2023/10/02 06:39:42;;;;;;;25.52;12.55;;;;;;;;;;4990437;28;93211;-66
2023/10/02 06:42:09;;;;;;;24.67;12.73;;;;;;;;;;4992889;28;94258;-65
2023/10/02 06:44:55;;;;;;;31.27;13.02;;;;;;;;;;4996617;28;92463;-65
2023/10/02 06:47:24;;;;;;;26.67;11.73;;;;;;;;;;4991006;28;94371;-65
2023/10/02 06:49:51;;;;;;;32.85;12.75;;;;;;;;;;4993396;28;91692;-65
2023/10/02 06:52:19;;;;;;;24.70;12.73;;;;;;;;;;4994249;28;92581;-65
2023/10/02 06:54:47;;;;;;;31.60;12.82;;;;;;;;;;4993321;28;93441;-65
2023/10/02 06:57:15;;;;;;;27.92;12.55;;;;;;;;;;4992040;28;94919;-66
2023/10/02 06:59:51;;;;;;;28.45;12.70;;;;;;;;;;4993036;28;95553;-65
2023/10/02 07:02:18;;;;;;;30.13;13.07;;;;;;;;;;4993108;28;96249;-66
2023/10/02 07:04:47;;;;;;;30.23;12.48;;;;;;;;;;4996531;28;92639;-65
2023/10/02 07:07:14;;;;;;;27.67;12.95;;;;;;;;;;4993583;28;94634;-65
2023/10/02 07:09:41;;;;;;;33.50;13.70;;;;;;;;;;4992956;28;92420;-66
2023/10/02 07:12:13;;;;;;;31.38;13.63;;;;;;;;;;4993277;28;94480;-65
2023/10/02 07:14:41;;;;;;;32.33;13.43;;;;;;;;;;4993719;28;94264;-63
2023/10/02 07:17:17;;;;;;;29.75;13.00;;;;;;;;;;4992621;28;93111;-63
2023/10/02 07:19:50;;;;;;;35.70;13.68;;;;;;;;;;4989639;28;93576;-63
2023/10/02 07:22:18;;;;;;;26.75;12.70;;;;;;;;;;4990674;28;94845;-63
2023/10/02 07:24:47;;;;;;;30.95;13.07;;;;;;;;;;4993456;28;92721;-63
2023/10/02 07:27:28;;;;;;;28.35;13.80;;;;;;;;;;4995798;28;93375;-63
2023/10/02 07:29:58;;;;;;;35.85;13.18;;;;;;;;;;4992928;28;92635;-63
2023/10/02 07:32:25;;;;;;;37.70;13.65;;;;;;;;;;4992873;28;93125;-63
2023/10/02 07:34:53;;;;;;;30.27;13.23;;;;;;;;;;4992584;28;93722;-63
2023/10/02 07:37:24;;;;;;;31.58;12.95;;;;;;;;;;4991122;28;92490;-62
2023/10/02 07:39:57;;;;;;;29.98;12.68;;;;;;;;;;4993059;28;91887;-63
2023/10/02 07:42:28;;;;;;;29.02;12.90;;;;;;;;;;4991636;28;93460;-63
2023/10/02 07:45:24;;;;;;;29.50;13.02;;;;;;;;;;4993328;28;92458;-63
2023/10/02 07:48:10;;;;;;;32.13;13.10;;;;;;;;;;4990183;28;95196;-63
2023/10/02 07:50:39;;;;;;;28.83;13.40;;;;;;;;;;4992176;28;93562;-63
2023/10/02 07:53:06;;;;;;;29.48;12.30;;;;;;;;;;4989067;28;94228;-63
2023/10/02 07:55:33;;;;;;;32.67;13.32;;;;;;;;;;4992477;28;94499;-63
2023/10/02 07:58:00;;;;;;;35.17;13.73;;;;;;;;;;4992101;28;92357;-62
2023/10/02 08:00:33;;;;;;;23.08;12.50;;;;;;;;;;4992599;28;93142;-63
2023/10/02 08:03:02;;;;;;;29.20;12.57;;;;;;;;;;4991714;28;93395;-62
2023/10/02 08:05:32;;;;;;;34.70;14.10;;;;;;;;;;4992106;28;91691;-64
2023/10/02 08:08:08;;;;;;;29.88;12.10;;;;;;;;;;4992316;28;92650;-63
2023/10/02 08:10:49;;;;;;;28.77;13.23;;;;;;;;;;4992171;28;93363;-62
2023/10/02 08:13:16;;;;;;;28.90;13.20;;;;;;;;;;4990626;28;95681;-63
2023/10/02 08:15:46;;;;;;;29.35;13.05;;;;;;;;;;4991987;28;93157;-62
2023/10/02 08:18:19;;;;;;;31.67;13.83;;;;;;;;;;4992717;28;92570;-63
2023/10/02 08:20:45;;;;;;;28.75;12.77;;;;;;;;;;4991805;28;93179;-63
2023/10/02 08:23:31;;;;;;;29.80;12.98;;;;;;;;;;4992359;28;93494;-63
2023/10/02 08:26:05;;;;;;;24.50;12.38;;;;;;;;;;4992351;28;92480;-63
2023/10/02 08:28:52;;;;;;;28.92;13.23;;;;;;;;;;4989801;28;92988;-63
2023/10/02 08:31:19;;;;;;;30.88;13.80;;;;;;;;;;4991200;28;93840;-63
2023/10/02 08:33:46;;;;;;;29.70;13.73;;;;;;;;;;4991478;28;92489;-63
2023/10/02 08:36:28;;;;;;;34.25;13.82;;;;;;;;;;4994399;28;93458;-63
2023/10/02 08:38:54;;;;;;;26.83;11.98;;;;;;;;;;4990505;28;94830;-63
2023/10/02 08:41:43;;;;;;;28.67;13.55;;;;;;;;;;4988265;28;95252;-63
2023/10/02 08:44:11;;;;;;;28.33;13.05;;;;;;;;;;4991681;28;93390;-63
2023/10/02 08:46:37;;;;;;;31.15;13.15;;;;;;;;;;4991609;28;92546;-63
2023/10/02 08:49:06;;;;;;;29.17;13.15;;;;;;;;;;4992488;28;94228;-63
2023/10/02 08:51:34;;;;;;;30.98;13.35;;;;;;;;;;4990611;28;93231;-62
2023/10/02 08:54:01;;;;;;;22.13;11.88;;;;;;;;;;4991872;28;92381;-62
2023/10/02 08:56:43;;;;;;;28.33;13.25;;;;;;;;;;4994191;28;94197;-63
2023/10/02 08:59:17;;;;;;;27.45;12.60;;;;;;;;;;4988662;28;92445;-63
2023/10/02 09:01:49;;;;;;;28.15;12.90;;;;;;;;;;4984020;28;92961;-63
2023/10/02 09:04:23;;;;;;;29.92;13.00;;;;;;;;;;4989580;28;95726;-63
2023/10/02 09:06:49;;;;;;;28.95;13.40;;;;;;;;;;4991659;28;92591;-63
2023/10/02 09:11:53;;;;;;;28.83;14.02;;;;;;;;;;4990959;28;93476;-63
2023/10/02 09:14:24;;;;;;;24.85;13.13;;;;;;;;;;4991272;28;92743;-63
2023/10/02 09:19:44;;;;;;;25.73;13.23;;;;;;;;;;4991023;28;93443;-63
2023/10/02 09:22:14;;;;;;;30.25;13.10;;;;;;;;;;4988469;28;93182;-63
2023/10/02 09:24:41;;;;;;;26.02;12.23;;;;;;;;;;4988012;28;92545;-63
2023/10/02 09:27:24;;;;;;;24.85;12.75;;;;;;;;;;4991918;28;92966;-63
2023/10/02 09:30:15;;;;;;;33.92;13.02;;;;;;;;;;4987452;28;95765;-63
2023/10/02 09:33:07;;;;;;;36.13;13.93;;;;;;;;;;4991468;28;93432;-63
2023/10/02 09:38:31;;;;;;;31.45;13.02;;;;;;;;;;4989779;28;92568;-62
2023/10/02 09:41:08;;;;;;;28.60;12.88;;;;;;;;;;4990441;28;93417;-63
2023/10/02 09:43:37;;;;;;;23.63;12.27;;;;;;;;;;4993383;28;92541;-63
2023/10/02 09:46:15;;;;;;;29.27;13.38;;;;;;;;;;4990448;28;93564;-63
2023/10/02 09:51:26;;;;;;;30.90;12.85;;;;;;;;;;4987999;28;92669;-64
2023/10/02 09:54:05;;;;;;;32.00;12.98;;;;;;;;;;4993714;28;93476;-63
2023/10/02 09:56:54;;;;;;;24.67;11.73;;;;;;;;;;4993491;28;94724;-62
2023/10/02 09:59:22;;;;;;;27.10;12.63;;;;;;;;;;4991280;28;96082;-63
2023/10/02 10:02:47;;;;;;;25.42;12.48;;;;;;;;;;4993646;28;94064;-63
2023/10/02 10:10:45;;;;;;;25.25;11.95;;;;;;;;;;4993816;28;92424;-63
2023/10/02 10:13:31;;;;;;;24.10;10.88;;;;;;;;;;4989551;28;94284;-62
2023/10/02 10:16:19;;;;;;;27.35;11.55;;;;;;;;;;4993047;28;92658;-63
2023/10/02 10:21:55;;;;;;;29.65;11.35;;;;;;;;;;4992336;28;93365;-62
2023/10/02 10:24:31;;;;;;;25.38;11.35;;;;;;;;;;4989789;28;95040;-63
2023/10/02 10:26:58;;;;;;;25.05;11.05;;;;;;;;;;4993325;28;92474;-63
2023/10/02 10:29:41;;;;;;;27.27;11.27;;;;;;;;;;4993589;28;95915;-63
2023/10/02 10:32:17;;;;;;;25.70;11.10;;;;;;;;;;4997216;28;94696;-63
2023/10/02 10:35:12;;;;;;;27.45;11.73;;;;;;;;;;4988926;28;93326;-63
2023/10/02 10:37:46;;;;;;;26.90;12.35;;;;;;;;;;4993117;28;94080;-62
2023/10/02 10:40:44;;;;;;;30.52;12.07;;;;;;;;;;4990065;28;92469;-63
2023/10/02 10:43:13;;;;;;;23.35;11.60;;;;;;;;;;4993708;28;93202;-63
2023/10/02 10:45:41;;;;;;;26.50;11.98;;;;;;;;;;4993542;28;94527;-63
2023/10/02 10:48:23;;;;;;;22.10;11.30;;;;;;;;;;4994114;28;92618;-63
2023/10/02 10:50:59;;;;;;;32.58;11.63;;;;;;;;;;4989024;28;94969;-63
2023/10/02 10:53:27;;;;;;;24.52;10.98;;;;;;;;;;4993254;28;93344;-62
2023/10/02 10:56:05;;;;;;;27.77;11.90;;;;;;;;;;4996780;28;92419;-63
2023/10/02 10:58:35;;;;;;;25.73;11.40;;;;;;;;;;4993340;28;96163;-63
2023/10/02 11:01:05;;;;;;;22.73;11.52;;;;;;;;;;4992954;28;92601;-63
2023/10/02 11:03:32;;;;;;;23.67;11.50;;;;;;;;;;4992860;28;93218;-63
2023/10/02 11:06:02;;;;;;;23.95;11.77;;;;;;;;;;4993115;28;93532;-63
2023/10/02 11:08:30;;;;;;;22.00;11.15;;;;;;;;;;4993404;28;91838;-63
2023/10/02 11:11:18;;;;;;;30.65;12.45;;;;;;;;;;4992096;28;92471;-63
2023/10/02 11:14:00;;;;;;;27.85;11.07;;;;;;;;;;4989351;28;93810;-63
2023/10/02 11:16:30;;;;;;;22.45;11.25;;;;;;;;;;4992623;28;94966;-63
2023/10/02 11:19:10;;;;;;;27.88;11.65;;;;;;;;;;4992606;28;93631;-63
2023/10/02 11:21:45;;;;;;;25.38;11.50;;;;;;;;;;4993367;28;92431;-63
2023/10/02 11:24:20;;;;;;;24.75;11.88;;;;;;;;;;4992864;28;93296;-63
2023/10/02 11:26:47;;;;;;;23.23;11.70;;;;;;;;;;4993567;28;93592;-63
2023/10/02 11:29:20;;;;;;;25.17;12.43;;;;;;;;;;4992901;28;92554;-62
2023/10/02 11:31:56;;;;;;;23.48;11.40;;;;;;;;;;4994009;28;92991;-63
2023/10/02 11:34:22;;;;;;;24.35;12.27;;;;;;;;;;4989697;28;91769;-63
2023/10/02 11:36:58;;;;;;;21.10;10.68;;;;;;;;;;4992456;28;92568;-62
2023/10/02 11:39:28;;;;;;;25.77;10.50;;;;;;;;;;4995272;28;92607;-63
2023/10/02 11:41:54;;;;;;;22.07;11.47;;;;;;;;;;4990540;28;94915;-63
2023/10/02 11:44:21;;;;;;;22.70;11.30;;;;;;;;;;4993083;28;95496;-63
2023/10/02 11:46:48;;;;;;;29.90;10.85;;;;;;;;;;4993357;28;94420;-63
2023/10/02 11:49:15;;;;;;;20.45;10.43;;;;;;;;;;4991980;28;92532;-64
2023/10/02 11:51:44;;;;;;;21.42;10.80;;;;;;;;;;4993092;28;93185;-63
2023/10/02 11:54:13;;;;;;;22.70;11.10;;;;;;;;;;4991949;28;96237;-64
2023/10/02 11:56:39;;;;;;;23.13;11.25;;;;;;;;;;4992175;28;92507;-66
2023/10/02 11:59:07;;;;;;;20.98;10.98;;;;;;;;;;4992235;28;93193;-66
2023/10/02 12:01:35;;;;;;;22.95;10.02;;;;;;;;;;4995268;28;92644;-66
2023/10/02 12:04:04;;;;;;;28.50;12.00;;;;;;;;;;5001402;28;94419;-66
2023/10/02 12:06:31;;;;;;;26.08;10.70;;;;;;;;;;4990375;28;96852;-66
2023/10/02 12:08:58;;;;;;;21.80;10.25;;;;;;;;;;4992468;28;92942;-66
2023/10/02 12:11:25;;;;;;;28.20;11.88;;;;;;;;;;4992249;28;93069;-66
2023/10/02 12:13:52;;;;;;;20.15;10.45;;;;;;;;;;4992234;28;93029;-65
2023/10/02 12:16:21;;;;;;;23.38;10.90;;;;;;;;;;4992215;28;93681;-66
2023/10/02 12:18:49;;;;;;;22.50;10.30;;;;;;;;;;4992567;28;93259;-66
2023/10/02 12:21:16;;;;;;;29.52;13.15;;;;;;;;;;4991876;28;94363;-65
2023/10/02 12:23:43;;;;;;;23.30;10.10;;;;;;;;;;4995819;28;91791;-66
2023/10/02 12:26:16;;;;;;;19.05;9.82;;;;;;;;;;4992063;28;94621;-66
2023/10/02 12:28:43;;;;;;;24.83;10.15;;;;;;;;;;4993260;28;92600;-66
2023/10/02 12:31:13;;;;;;;18.40;9.63;;;;;;;;;;4990651;28;95351;-66
2023/10/02 12:33:39;;;;;;;;;;;;;;;;;;4993571;28;93408;-64
2023/10/02 12:36:17;;;;;;;23.23;9.48;;;;;;;;;;4992953;28;118164;-66
2023/10/02 12:38:47;;;;;;;20.15;9.52;;;;;;;;;;4993596;28;93493;-66
2023/10/02 12:41:13;;;;;;;;;;;;;;;;;;4993097;28;93359;-64
2023/10/02 12:43:39;;;;;;;21.45;10.32;;;;;;;;;;4993423;28;118004;-66
2023/10/02 12:46:06;;;;;;;18.52;9.50;;;;;;;;;;4995059;28;93220;-65
2023/10/02 12:48:33;;;;;;;84.30;46.78;;;;;;;;;;4992671;28;91906;-65
2023/10/02 12:51:06;;;;;;;85.80;54.03;;;;;;;;;;4992390;28;93522;-65
2023/10/02 12:53:36;;;;;;;87.22;49.05;;;;;;;;;;4991548;28;93427;-65
2023/10/02 12:56:05;;;;;;;74.03;52.47;;;;;;;;;;4989569;28;95343;-65
2023/10/02 12:58:32;;;;;;;81.22;56.35;;;;;;;;;;4991941;28;95636;-65
2023/10/02 13:01:00;;;;;;;84.07;59.70;;;;;;;;;;4990821;28;93478;-65
2023/10/02 13:03:31;;;;;;;102.93;68.03;;;;;;;;;;4991152;28;92698;-65
2023/10/02 13:05:59;;;;;;;83.57;60.53;;;;;;;;;;4991544;28;93224;-62
2023/10/02 13:08:26;;;;;;;180.93;115.93;;;;;;;;;;4994918;28;93455;-62
2023/10/02 13:10:53;;;;;;;112.55;90.35;;;;;;;;;;4990663;28;94679;-63
2023/10/02 13:13:20;;;;;;;112.05;76.97;;;;;;;;;;4988619;28;92600;-63
2023/10/02 13:15:48;;;;;;;92.57;69.10;;;;;;;;;;4991388;28;92540;-62
2023/10/02 13:18:15;;;;;;;93.00;65.00;;;;;;;;;;4991667;28;93240;-62
2023/10/02 13:20:44;;;;;;;76.90;54.03;;;;;;;;;;4989319;28;94912;-62
2023/10/02 13:23:12;;;;;;;;;;;;;;;;;;4992406;28;92348;-63
2023/10/02 13:25:39;;;;;;;92.50;69.45;;;;;;;;;;4992659;28;123518;-62
2023/10/02 13:28:05;;;;;;;112.10;78.32;;;;;;;;;;4997391;28;94064;-62
2023/10/02 13:30:33;;;;;;;106.68;76.88;;;;;;;;;;4994457;28;93187;-63
2023/10/02 13:33:00;;;;;;;78.93;62.17;;;;;;;;;;4994285;28;93414;-63
2023/10/02 13:35:27;;;;;;;154.63;103.57;;;;;;;;;;4994451;28;92791;-63
2023/10/02 13:37:53;;;;;;;101.50;86.97;;;;;;;;;;4994919;28;94363;-63
2023/10/02 13:40:31;;;;;;;176.93;133.23;;;;;;;;;;4994604;28;94447;-63
2023/10/02 13:42:58;;;;;;;130.27;91.70;;;;;;;;;;4991133;28;92811;-63
2023/10/02 13:45:27;;;;;;;149.93;108.88;;;;;;;;;;4993411;28;94784;-63
2023/10/02 13:47:55;;;;;;;160.00;119.05;;;;;;;;;;4990292;28;93458;-63
2023/10/02 13:50:22;;;;;;;232.63;159.57;;;;;;;;;;4997262;28;92501;-63
2023/10/02 13:52:53;;;;;;;202.77;158.32;;;;;;;;;;4993896;28;93638;-63
2023/10/02 13:55:19;;;;;;;275.13;190.77;;;;;;;;;;4992996;28;92793;-62
2023/10/02 13:57:47;;;;;;;272.38;201.05;;;;;;;;;;4992607;28;93440;-63
2023/10/02 14:00:17;;;;;;;300.25;219.90;;;;;;;;;;4993393;28;93710;-63
2023/10/02 14:02:45;;;;;;;243.30;178.02;;;;;;;;;;4993835;28;92240;-62
2023/10/02 14:05:13;;;;;;;262.48;202.65;;;;;;;;;;4998203;28;92974;-63
2023/10/02 14:07:44;;;;;;;283.85;195.70;;;;;;;;;;4993241;28;93624;-62
2023/10/02 14:10:12;;;;;;;242.93;177.80;;;;;;;;;;4991700;28;94804;-63
2023/10/02 14:12:42;;;;;;;247.75;163.48;;;;;;;;;;4995856;28;94457;-62
2023/10/02 14:15:16;;;;;;;256.05;197.45;;;;;;;;;;4993435;28;92471;-65
2023/10/02 14:17:46;;;;;;;375.13;297.33;;;;;;;;;;4998107;28;93015;-66
2023/10/02 14:20:15;;;;;;;336.95;248.13;;;;;;;;;;4994033;28;94764;-66
2023/10/02 14:22:48;;;;;;;225.50;163.55;;;;;;;;;;4992508;28;92614;-66
2023/10/02 14:25:16;;;;;;;242.60;182.70;;;;;;;;;;4993232;28;93439;-66
2023/10/02 14:27:43;;;;;;;180.53;134.60;;;;;;;;;;4993318;28;94778;-66
2023/10/02 14:30:13;;;;;;;108.28;91.63;;;;;;;;;;4993534;28;93380;-66
2023/10/02 14:32:46;;;;;;;237.55;184.20;;;;;;;;;;4993868;28;93426;-66
2023/10/02 14:35:13;;;;;;;210.13;154.60;;;;;;;;;;4994749;28;98189;-66
2023/10/02 14:37:42;;;;;;;193.60;152.57;;;;;;;;;;4991909;28;95764;-66
2023/10/02 14:40:11;;;;;;;238.15;175.60;;;;;;;;;;4993093;28;93504;-66
2023/10/02 14:42:38;;;;;;;213.43;172.98;;;;;;;;;;4992228;28;93389;-66
2023/10/02 14:45:05;;;;;;;237.93;191.00;;;;;;;;;;4993084;28;92548;-66
2023/10/02 14:47:31;;;;;;;205.98;170.63;;;;;;;;;;4992039;28;93550;-66
2023/10/02 14:49:58;;;;;;;277.10;208.20;;;;;;;;;;4992388;28;92612;-66
2023/10/02 14:52:24;;;;;;;233.00;164.60;;;;;;;;;;4993595;28;92332;-66
2023/10/02 14:54:52;;;;;;;321.52;268.70;;;;;;;;;;4992744;28;94398;-66
2023/10/02 14:57:19;;;;;;;257.27;178.10;;;;;;;;;;4995525;28;93200;-66
2023/10/02 14:59:46;;;;;;;391.55;312.83;;;;;;;;;;4990706;28;96926;-66
2023/10/02 15:02:12;;;;;;;428.77;362.98;;;;;;;;;;4992398;28;93465;-66
2023/10/02 15:04:39;;;;;;;420.67;366.75;;;;;;;;;;4991751;28;94165;-66
2023/10/02 15:07:05;;;;;;;389.02;325.88;;;;;;;;;;4992561;28;92878;-66
2023/10/02 15:09:31;;;;;;;346.23;302.00;;;;;;;;;;4992535;28;93221;-66
2023/10/02 15:11:58;;;;;;;368.08;281.90;;;;;;;;;;4992309;28;93780;-66
2023/10/02 15:14:26;;;;;;;367.35;286.73;;;;;;;;;;4991703;28;94271;-66
2023/10/02 15:16:56;;;;;;;345.38;287.00;;;;;;;;;;4993213;28;91807;-66
2023/10/02 15:19:22;;;;;;;362.33;298.88;;;;;;;;;;4995318;28;92627;-67
2023/10/02 15:21:49;;;;;;;323.70;271.23;;;;;;;;;;4991841;28;93645;-66